createdAt,value
2022-09-07T00:02:04.753Z,21.60
2022-09-07T00:04:31.786Z,21.60
2022-09-07T00:06:59.679Z,21.60
2022-09-07T00:09:26.428Z,21.60
2022-09-07T00:11:53.168Z,21.50
2022-09-07T00:14:21.202Z,21.40
2022-09-07T00:16:47.922Z,21.40
2022-09-07T00:19:14.678Z,21.40
2022-09-07T00:21:41.395Z,21.30
2022-09-07T00:24:08.189Z,21.30
2022-09-07T00:26:35.353Z,21.20
2022-09-07T00:29:03.571Z,21.20
2022-09-07T00:31:31.089Z,21.00
2022-09-07T00:34:00.089Z,21.00
2022-09-07T00:36:27.098Z,20.90
2022-09-07T00:38:54.037Z,20.80
2022-09-07T00:41:21.436Z,20.60
2022-09-07T00:43:49.613Z,20.60
2022-09-07T00:46:18.678Z,20.50
2022-09-07T00:48:52.136Z,20.50
2022-09-07T00:51:27.845Z,20.30
2022-09-07T00:53:58.921Z,20.30
2022-09-07T00:56:29.993Z,20.10
2022-09-07T00:58:56.798Z,20.10
2022-09-07T01:01:25.148Z,20.00
2022-09-07T01:03:54.773Z,19.90
2022-09-07T01:06:25.526Z,19.80
2022-09-07T01:08:52.277Z,19.70
2022-09-07T01:11:21.226Z,19.70
2022-09-07T01:13:49.804Z,19.60
2022-09-07T01:16:44.671Z,19.50
2022-09-07T01:19:30.669Z,19.50
2022-09-07T01:22:26.942Z,19.40
2022-09-07T01:25:13.475Z,19.40
2022-09-07T01:28:13.829Z,19.30
2022-09-07T01:30:44.551Z,19.30
2022-09-07T01:33:42.650Z,19.20
2022-09-07T01:36:26.234Z,19.10
2022-09-07T01:39:00.481Z,19.00
2022-09-07T01:41:46.743Z,19.00
2022-09-07T01:44:37.167Z,19.00
2022-09-07T01:47:23.208Z,19.00
2022-09-07T01:50:19.043Z,18.90
2022-09-07T01:52:54.438Z,18.90
2022-09-07T01:55:26.974Z,18.90
2022-09-07T01:58:01.317Z,18.80
2022-09-07T02:00:28.253Z,18.80
2022-09-07T02:02:59.353Z,18.70
2022-09-07T02:05:43.394Z,18.70
2022-09-07T02:08:17.312Z,18.70
2022-09-07T02:10:56.616Z,18.70
2022-09-07T02:13:28.929Z,18.70
2022-09-07T02:16:12.360Z,18.60
2022-09-07T02:18:44.016Z,18.60
2022-09-07T02:21:14.420Z,18.50
2022-09-07T02:23:46.667Z,18.50
2022-09-07T02:26:16.632Z,18.60
2022-09-07T02:28:43.756Z,18.60
2022-09-07T02:31:10.600Z,18.70
2022-09-07T02:33:37.616Z,18.70
2022-09-07T02:36:05.439Z,18.80
2022-09-07T02:38:33.002Z,18.80
2022-09-07T02:41:01.162Z,18.80
2022-09-07T02:43:28.719Z,18.90
2022-09-07T02:46:16.859Z,19.00
2022-09-07T02:49:16.368Z,19.10
2022-09-07T02:52:12.670Z,19.10
2022-09-07T02:54:57.908Z,19.10
2022-09-07T02:57:32.128Z,19.20
2022-09-07T03:00:11.599Z,19.30
2022-09-07T03:03:00.553Z,19.30
2022-09-07T03:05:33.682Z,19.30
2022-09-07T03:08:07.712Z,19.30
2022-09-07T03:10:38.488Z,19.40
2022-09-07T03:13:05.241Z,19.40
2022-09-07T03:15:32.014Z,19.40
2022-09-07T03:17:58.840Z,19.30
2022-09-07T03:20:25.628Z,19.30
2022-09-07T03:22:53.061Z,19.30
2022-09-07T03:25:20.195Z,19.40
2022-09-07T03:27:47.063Z,19.40
2022-09-07T03:30:14.280Z,19.40
2022-09-07T03:32:42.000Z,19.50
2022-09-07T03:35:09.425Z,19.50
2022-09-07T03:37:37.192Z,19.40
2022-09-07T03:40:06.374Z,19.20
2022-09-07T03:42:33.245Z,19.20
2022-09-07T03:45:00.027Z,19.30
2022-09-07T03:47:26.820Z,19.30
2022-09-07T03:49:53.540Z,19.30
2022-09-07T03:52:20.262Z,19.40
2022-09-07T03:54:47.016Z,19.40
2022-09-07T03:57:13.780Z,19.50
2022-09-07T03:59:40.498Z,19.50
2022-09-07T04:02:07.339Z,19.60
2022-09-07T04:04:34.122Z,19.60
2022-09-07T04:07:00.926Z,19.60
2022-09-07T04:09:27.696Z,19.70
2022-09-07T04:11:54.443Z,19.60
2022-09-07T04:14:21.280Z,19.60
2022-09-07T04:16:48.588Z,19.60
2022-09-07T04:19:15.340Z,19.60
2022-09-07T04:21:44.259Z,19.60
2022-09-07T04:24:11.013Z,19.60
2022-09-07T04:26:37.952Z,19.60
2022-09-07T04:29:05.299Z,19.60
2022-09-07T04:31:33.656Z,19.60
2022-09-07T04:34:00.392Z,19.60
2022-09-07T04:36:27.320Z,19.60
2022-09-07T04:39:02.627Z,19.60
2022-09-07T04:41:31.077Z,19.60
2022-09-07T04:44:00.150Z,19.60
2022-09-07T04:46:33.758Z,19.60
2022-09-07T04:49:05.655Z,19.60
2022-09-07T04:51:33.550Z,19.60
2022-09-07T04:54:02.059Z,19.60
2022-09-07T04:56:29.285Z,19.60
2022-09-07T04:58:56.972Z,19.60
2022-09-07T05:01:24.941Z,19.60
2022-09-07T05:03:52.158Z,19.60
2022-09-07T05:06:20.163Z,19.60
2022-09-07T05:08:50.448Z,19.60
2022-09-07T05:11:18.327Z,19.60
2022-09-07T05:13:45.367Z,19.50
2022-09-07T05:16:18.084Z,19.50
2022-09-07T05:18:49.194Z,19.50
2022-09-07T05:21:18.344Z,19.60
2022-09-07T05:23:45.417Z,19.50
2022-09-07T05:26:12.331Z,19.50
2022-09-07T05:28:39.237Z,19.50
2022-09-07T05:31:18.076Z,19.50
2022-09-07T05:36:46.576Z,19.60
2022-09-07T05:39:13.422Z,19.50
2022-09-07T05:41:55.353Z,19.50
2022-09-07T05:44:45.007Z,19.50
2022-09-07T05:47:12.730Z,19.50
2022-09-07T05:49:39.676Z,19.50
2022-09-07T05:52:06.926Z,19.60
2022-09-07T05:54:33.738Z,19.60
2022-09-07T05:57:00.607Z,19.60
2022-09-07T05:59:48.282Z,19.60
2022-09-07T06:02:17.183Z,19.60
2022-09-07T06:04:44.208Z,19.60
2022-09-07T06:07:28.526Z,19.60
2022-09-07T06:12:49.020Z,19.60
2022-09-07T06:15:16.476Z,19.60
2022-09-07T06:17:43.263Z,19.60
2022-09-07T06:20:10.357Z,19.60
2022-09-07T06:22:37.721Z,19.60
2022-09-07T06:25:05.371Z,19.70
2022-09-07T06:27:32.454Z,19.70
2022-09-07T06:29:59.176Z,19.70
2022-09-07T06:35:09.503Z,19.80
2022-09-07T06:37:38.675Z,19.80
2022-09-07T06:40:06.238Z,19.80
2022-09-07T06:42:33.278Z,19.80
2022-09-07T06:45:00.243Z,19.80
2022-09-07T06:47:28.630Z,19.90
2022-09-07T06:49:55.391Z,19.90
2022-09-07T06:52:22.563Z,19.80
2022-09-07T06:55:04.676Z,20.00
2022-09-07T06:57:31.575Z,20.10
2022-09-07T06:59:58.481Z,20.30
2022-09-07T07:02:25.207Z,20.30
2022-09-07T07:04:52.074Z,20.50
2022-09-07T07:07:18.816Z,20.50
2022-09-07T07:09:45.680Z,20.50
2022-09-07T07:12:12.403Z,20.40
2022-09-07T07:14:43.988Z,20.40
2022-09-07T07:17:11.587Z,20.40
2022-09-07T07:19:38.397Z,20.40
2022-09-07T07:22:23.885Z,20.50
2022-09-07T07:24:52.334Z,20.70
2022-09-07T07:27:19.110Z,20.70
2022-09-07T07:29:46.051Z,20.80
2022-09-07T07:32:12.938Z,20.80
2022-09-07T07:34:39.708Z,20.80
2022-09-07T07:37:06.519Z,20.70
2022-09-07T07:42:21.286Z,20.70
2022-09-07T07:44:48.727Z,20.90
2022-09-07T07:47:15.562Z,21.10
2022-09-07T07:49:42.395Z,21.30
2022-09-07T07:54:58.138Z,21.60
2022-09-07T07:57:24.821Z,21.60
2022-09-07T07:59:51.754Z,21.60
2022-09-07T08:02:18.498Z,21.60
2022-09-07T08:04:45.225Z,21.70
2022-09-07T08:07:12.094Z,21.70
2022-09-07T08:09:40.526Z,21.70
2022-09-07T08:12:08.054Z,21.80
2022-09-07T08:14:40.472Z,21.80
2022-09-07T08:17:07.932Z,22.00
2022-09-07T08:19:34.619Z,22.00
2022-09-07T08:22:01.358Z,22.10
2022-09-07T08:24:28.099Z,22.20
2022-09-07T08:26:54.821Z,22.30
2022-09-07T08:29:21.558Z,22.40
2022-09-07T08:31:48.413Z,22.50
2022-09-07T08:34:15.125Z,22.60
2022-09-07T08:36:41.833Z,22.70
2022-09-07T08:39:08.518Z,22.80
2022-09-07T08:41:44.422Z,22.90
2022-09-07T08:44:29.644Z,23.00
2022-09-07T08:46:58.534Z,23.20
2022-09-07T08:49:47.357Z,23.20
2022-09-07T08:52:16.017Z,23.20
2022-09-07T08:54:45.169Z,23.20
2022-09-07T08:57:28.284Z,23.20
2022-09-07T09:00:10.237Z,23.10
2022-09-07T09:02:43.495Z,23.10
2022-09-07T09:05:33.103Z,22.90
2022-09-07T09:08:05.346Z,22.90
2022-09-07T09:10:47.932Z,22.80
2022-09-07T09:13:14.622Z,22.90
2022-09-07T09:15:53.670Z,22.90
2022-09-07T09:18:29.366Z,23.00
2022-09-07T09:20:57.500Z,23.00
2022-09-07T09:23:26.877Z,23.00
2022-09-07T09:25:55.811Z,23.00
2022-09-07T09:28:24.697Z,23.10
2022-09-07T09:30:53.315Z,23.20
2022-09-07T09:33:27.503Z,23.40
2022-09-07T09:35:56.585Z,23.50
2022-09-07T09:38:29.560Z,23.70
2022-09-07T09:40:58.447Z,23.70
2022-09-07T09:43:28.064Z,23.80
2022-09-07T09:46:13.019Z,23.90
2022-09-07T09:48:41.509Z,24.00
2022-09-07T09:54:15.125Z,24.20
2022-09-07T09:56:44.304Z,24.20
2022-09-07T10:05:33.872Z,24.60
2022-09-07T10:08:00.657Z,24.70
2022-09-07T10:10:28.658Z,24.80
2022-09-07T10:12:55.910Z,24.80
2022-09-07T10:15:40.592Z,24.90
2022-09-07T10:18:18.814Z,25.00
2022-09-07T10:20:45.713Z,25.10
2022-09-07T10:23:22.131Z,25.10
2022-09-07T10:25:49.085Z,25.20
2022-09-07T10:28:21.381Z,25.40
2022-09-07T10:30:54.176Z,25.40
2022-09-07T10:33:27.553Z,25.50
2022-09-07T10:36:02.778Z,25.60
2022-09-07T10:38:31.698Z,25.70
2022-09-07T10:41:09.728Z,25.70
2022-09-07T10:43:45.835Z,25.70
2022-09-07T10:47:00.132Z,25.70
2022-09-07T10:53:39.511Z,25.60
2022-09-07T10:56:38.786Z,25.70
2022-09-07T10:59:18.479Z,25.70
2022-09-07T11:02:12.549Z,25.70
2022-09-07T11:05:02.929Z,25.60
2022-09-07T11:07:48.397Z,25.70
2022-09-07T11:10:43.092Z,25.70
2022-09-07T11:13:13.838Z,25.70
2022-09-07T11:15:45.838Z,25.70
2022-09-07T11:18:23.837Z,25.70
2022-09-07T11:20:55.755Z,25.80
2022-09-07T11:23:44.995Z,25.90
2022-09-07T11:26:25.597Z,26.10
2022-09-07T11:31:52.239Z,26.40
2022-09-07T11:34:29.116Z,26.40
2022-09-07T11:37:01.088Z,26.50
2022-09-07T11:39:35.459Z,26.40
2022-09-07T11:45:25.234Z,26.60
2022-09-07T11:48:00.020Z,26.50
2022-09-07T11:50:29.996Z,26.60
2022-09-07T11:53:32.916Z,26.60
2022-09-07T11:56:04.694Z,26.80
2022-09-07T11:59:08.638Z,26.80
2022-09-07T12:01:57.310Z,26.80
2022-09-07T12:04:33.510Z,26.80
2022-09-07T12:07:19.702Z,26.70
2022-09-07T12:09:52.889Z,26.70
2022-09-07T12:12:48.471Z,26.70
2022-09-07T12:15:33.829Z,26.60
2022-09-07T12:18:12.196Z,26.60
2022-09-07T12:20:47.426Z,26.50
2022-09-07T12:23:17.133Z,26.50
2022-09-07T12:25:46.006Z,26.60
2022-09-07T12:28:23.958Z,26.70
2022-09-07T12:31:05.818Z,26.90
2022-09-07T12:33:32.490Z,27.00
2022-09-07T12:36:00.876Z,27.10
2022-09-07T12:38:30.688Z,27.10
2022-09-07T12:41:18.302Z,27.30
2022-09-07T12:43:48.775Z,27.30
2022-09-07T12:46:34.886Z,27.60
2022-09-07T12:49:29.070Z,27.80
2022-09-07T12:52:14.875Z,27.80
2022-09-07T12:55:28.547Z,27.90
2022-09-07T12:58:14.299Z,28.00
2022-09-07T13:00:50.031Z,27.90
2022-09-07T13:03:51.770Z,28.00
2022-09-07T13:07:03.115Z,28.10
2022-09-07T13:09:41.040Z,28.00
2022-09-07T13:15:41.518Z,27.90
2022-09-07T13:18:27.223Z,27.90
2022-09-07T13:21:08.979Z,28.10
2022-09-07T13:23:40.142Z,28.30
2022-09-07T13:26:09.393Z,28.30
2022-09-07T13:28:51.264Z,28.30
2022-09-07T13:31:42.200Z,28.50
2022-09-07T13:34:33.971Z,28.60
2022-09-07T13:37:05.805Z,28.80
2022-09-07T13:39:42.350Z,28.80
2022-09-07T13:42:16.717Z,29.00
2022-09-07T13:44:53.751Z,29.10
2022-09-07T13:47:30.776Z,29.30
2022-09-07T13:50:19.321Z,29.30
2022-09-07T13:53:04.855Z,29.50
2022-09-07T13:55:38.509Z,29.50
2022-09-07T13:58:34.786Z,29.50
2022-09-07T14:01:08.235Z,29.20
2022-09-07T14:03:43.556Z,29.00
2022-09-07T14:06:22.437Z,28.90
2022-09-07T14:08:51.687Z,28.80
2022-09-07T14:11:19.547Z,28.70
2022-09-07T14:13:46.346Z,28.60
2022-09-07T14:16:13.294Z,28.50
2022-09-07T14:18:40.295Z,28.50
2022-09-07T14:21:09.543Z,28.50
2022-09-07T14:23:36.760Z,28.40
2022-09-07T14:26:16.725Z,28.40
2022-09-07T14:28:46.017Z,28.40
2022-09-07T14:31:15.276Z,28.40
2022-09-07T14:33:54.238Z,28.40
2022-09-07T14:36:48.240Z,28.40
2022-09-07T14:39:17.244Z,28.50
2022-09-07T14:41:44.519Z,28.40
2022-09-07T14:44:29.860Z,28.40
2022-09-07T14:46:59.146Z,28.40
2022-09-07T14:49:25.889Z,28.40
2022-09-07T14:51:54.602Z,28.40
2022-09-07T14:54:32.448Z,28.50
2022-09-07T14:57:24.171Z,28.50
2022-09-07T14:59:53.632Z,28.50
2022-09-07T15:02:28.545Z,28.60
2022-09-07T15:05:14.347Z,28.60
2022-09-07T15:07:45.866Z,28.50
2022-09-07T15:10:14.274Z,28.50
2022-09-07T15:12:43.091Z,28.30
2022-09-07T15:15:30.172Z,28.20
2022-09-07T15:18:04.514Z,28.10
2022-09-07T15:20:36.828Z,28.00
2022-09-07T15:23:13.308Z,27.90
2022-09-07T15:25:44.341Z,27.90
2022-09-07T15:34:04.988Z,27.80
2022-09-07T15:36:32.261Z,27.60
2022-09-07T15:38:59.899Z,27.60
2022-09-07T15:41:27.809Z,27.60
2022-09-07T15:43:55.506Z,27.70
2022-09-07T15:46:24.884Z,27.60
2022-09-07T15:48:54.388Z,27.60
2022-09-07T15:54:13.832Z,27.50
2022-09-07T15:56:42.676Z,27.50
2022-09-07T15:59:10.319Z,27.50
2022-09-07T16:01:54.719Z,27.50
2022-09-07T16:04:24.090Z,27.60
2022-09-07T16:06:51.085Z,27.60
2022-09-07T16:09:21.632Z,27.60
2022-09-07T16:11:50.123Z,27.60
2022-09-07T16:14:17.723Z,27.60
2022-09-07T16:19:34.974Z,27.50
2022-09-07T16:22:03.092Z,27.50
2022-09-07T16:24:30.040Z,27.40
2022-09-07T16:26:56.809Z,27.20
2022-09-07T16:29:23.468Z,27.10
2022-09-07T16:34:37.250Z,27.00
2022-09-07T16:37:04.091Z,27.00
2022-09-07T16:39:31.961Z,27.00
2022-09-07T16:42:00.033Z,27.00
2022-09-07T16:44:26.862Z,27.00
2022-09-07T16:46:54.974Z,26.90
2022-09-07T16:49:21.991Z,26.80
2022-09-07T16:51:49.820Z,26.80
2022-09-07T16:54:17.598Z,26.70
2022-09-07T16:56:44.319Z,26.60
2022-09-07T16:59:16.544Z,26.60
2022-09-07T17:01:43.281Z,26.60
2022-09-07T17:04:11.430Z,26.50
2022-09-07T17:06:39.819Z,26.50
2022-09-07T17:09:07.245Z,26.40
2022-09-07T17:11:35.420Z,26.30
2022-09-07T17:14:02.453Z,26.20
2022-09-07T17:16:37.392Z,26.20
2022-09-07T17:21:53.562Z,26.10
2022-09-07T17:24:20.593Z,26.00
2022-09-07T17:26:48.440Z,25.90
2022-09-07T17:29:15.128Z,25.80
2022-09-07T17:34:30.188Z,25.80
2022-09-07T17:36:57.138Z,25.70
2022-09-07T17:39:23.887Z,25.60
2022-09-07T17:41:54.441Z,25.60
2022-09-07T17:44:22.469Z,25.50
2022-09-07T17:46:49.306Z,25.50
2022-09-07T17:49:19.097Z,25.40
2022-09-07T17:51:46.022Z,25.30
2022-09-07T17:54:17.874Z,25.30
2022-09-07T17:56:45.280Z,25.20
2022-09-07T18:01:58.891Z,25.10
2022-09-07T18:04:25.844Z,24.90
2022-09-07T18:06:54.131Z,24.80
2022-09-07T18:09:22.133Z,24.70
2022-09-07T18:11:50.110Z,24.60
2022-09-07T18:14:18.043Z,24.60
2022-09-07T18:16:46.429Z,24.40
2022-09-07T18:19:13.491Z,24.40
2022-09-07T18:21:42.902Z,24.30
2022-09-07T18:24:18.512Z,24.20
2022-09-07T18:26:50.182Z,24.20
2022-09-07T18:29:28.706Z,24.10
2022-09-07T18:31:57.186Z,24.00
2022-09-07T18:34:24.093Z,24.00
2022-09-07T18:36:51.217Z,23.90
2022-09-07T18:39:18.161Z,23.90
